sensor_id;sensor_type;location;lat;lon;timestamp;P1;durP1;ratioP1;P2;durP2;ratioP2
24273;SDS011;12392;42.678;23.380;2022-08-05T00:01:50;5.82;;;4.13;;
24273;SDS011;12392;42.678;23.380;2022-08-05T00:04:16;8.35;;;4.70;;
24273;SDS011;12392;42.678;23.380;2022-08-05T00:06:42;5.07;;;4.13;;
24273;SDS011;12392;42.678;23.380;2022-08-05T00:09:07;6.45;;;4.10;;
24273;SDS011;12392;42.678;23.380;2022-08-05T00:11:33;4.63;;;4.10;;
24273;SDS011;12392;42.678;23.380;2022-08-05T00:13:59;6.05;;;3.78;;
24273;SDS011;12392;42.678;23.380;2022-08-05T00:16:24;4.25;;;3.95;;
24273;SDS011;12392;42.678;23.380;2022-08-05T00:18:50;7.78;;;4.47;;
24273;SDS011;12392;42.678;23.380;2022-08-05T00:21:16;5.82;;;4.30;;
24273;SDS011;12392;42.678;23.380;2022-08-05T00:23:43;4.60;;;3.53;;
24273;SDS011;12392;42.678;23.380;2022-08-05T00:26:10;14.15;;;5.13;;
24273;SDS011;12392;42.678;23.380;2022-08-05T00:28:36;5.28;;;4.43;;
24273;SDS011;12392;42.678;23.380;2022-08-05T00:31:02;8.85;;;4.90;;
24273;SDS011;12392;42.678;23.380;2022-08-05T00:33:28;5.60;;;4.63;;
24273;SDS011;12392;42.678;23.380;2022-08-05T00:35:54;7.45;;;5.20;;
24273;SDS011;12392;42.678;23.380;2022-08-05T00:38:19;7.00;;;5.28;;
24273;SDS011;12392;42.678;23.380;2022-08-05T00:40:49;12.55;;;6.18;;
24273;SDS011;12392;42.678;23.380;2022-08-05T00:43:16;7.75;;;5.78;;
24273;SDS011;12392;42.678;23.380;2022-08-05T00:45:42;7.05;;;5.28;;
24273;SDS011;12392;42.678;23.380;2022-08-05T00:48:09;7.97;;;6.32;;
24273;SDS011;12392;42.678;23.380;2022-08-05T00:50:42;10.40;;;6.55;;
24273;SDS011;12392;42.678;23.380;2022-08-05T00:53:09;8.68;;;5.75;;
24273;SDS011;12392;42.678;23.380;2022-08-05T00:55:34;11.50;;;5.90;;
24273;SDS011;12392;42.678;23.380;2022-08-05T00:58:00;12.80;;;5.97;;
24273;SDS011;12392;42.678;23.380;2022-08-05T01:00:27;8.10;;;5.63;;
24273;SDS011;12392;42.678;23.380;2022-08-05T01:02:55;13.60;;;6.65;;
24273;SDS011;12392;42.678;23.380;2022-08-05T01:05:21;6.38;;;5.72;;
24273;SDS011;12392;42.678;23.380;2022-08-05T01:07:48;7.78;;;6.13;;
24273;SDS011;12392;42.678;23.380;2022-08-05T01:10:15;8.38;;;5.97;;
24273;SDS011;12392;42.678;23.380;2022-08-05T01:12:44;10.23;;;6.22;;
24273;SDS011;12392;42.678;23.380;2022-08-05T01:15:13;10.50;;;6.00;;
24273;SDS011;12392;42.678;23.380;2022-08-05T01:17:42;8.02;;;6.28;;
24273;SDS011;12392;42.678;23.380;2022-08-05T01:23:20;11.10;;;5.95;;
24273;SDS011;12392;42.678;23.380;2022-08-05T01:28:53;8.15;;;5.85;;
24273;SDS011;12392;42.678;23.380;2022-08-05T01:31:25;7.65;;;5.70;;
24273;SDS011;12392;42.678;23.380;2022-08-05T01:34:02;8.48;;;5.57;;
24273;SDS011;12392;42.678;23.380;2022-08-05T01:36:33;8.43;;;6.55;;
24273;SDS011;12392;42.678;23.380;2022-08-05T01:39:02;7.85;;;5.35;;
24273;SDS011;12392;42.678;23.380;2022-08-05T01:41:29;5.38;;;4.72;;
24273;SDS011;12392;42.678;23.380;2022-08-05T01:43:57;8.02;;;4.85;;
24273;SDS011;12392;42.678;23.380;2022-08-05T01:46:25;8.73;;;4.43;;
24273;SDS011;12392;42.678;23.380;2022-08-05T01:48:52;6.35;;;4.85;;
24273;SDS011;12392;42.678;23.380;2022-08-05T01:51:19;7.47;;;4.40;;
24273;SDS011;12392;42.678;23.380;2022-08-05T01:53:45;5.45;;;4.10;;
24273;SDS011;12392;42.678;23.380;2022-08-05T01:56:12;4.90;;;3.90;;
24273;SDS011;12392;42.678;23.380;2022-08-05T01:58:40;4.35;;;3.85;;
24273;SDS011;12392;42.678;23.380;2022-08-05T02:01:07;6.60;;;4.20;;
24273;SDS011;12392;42.678;23.380;2022-08-05T02:03:35;10.82;;;4.50;;
24273;SDS011;12392;42.678;23.380;2022-08-05T02:06:02;6.22;;;4.20;;
24273;SDS011;12392;42.678;23.380;2022-08-05T02:08:30;4.20;;;3.80;;
24273;SDS011;12392;42.678;23.380;2022-08-05T02:10:58;4.82;;;4.18;;
24273;SDS011;12392;42.678;23.380;2022-08-05T02:13:28;4.40;;;4.00;;
24273;SDS011;12392;42.678;23.380;2022-08-05T02:19:19;6.05;;;4.10;;
24273;SDS011;12392;42.678;23.380;2022-08-05T02:21:57;6.32;;;3.92;;
24273;SDS011;12392;42.678;23.380;2022-08-05T02:24:36;6.38;;;4.35;;
24273;SDS011;12392;42.678;23.380;2022-08-05T02:27:02;6.50;;;4.10;;
24273;SDS011;12392;42.678;23.380;2022-08-05T02:29:29;7.45;;;4.43;;
24273;SDS011;12392;42.678;23.380;2022-08-05T02:31:58;4.40;;;4.00;;
24273;SDS011;12392;42.678;23.380;2022-08-05T02:34:25;8.57;;;3.92;;
24273;SDS011;12392;42.678;23.380;2022-08-05T02:36:55;4.78;;;3.85;;
24273;SDS011;12392;42.678;23.380;2022-08-05T02:39:23;5.50;;;4.22;;
24273;SDS011;12392;42.678;23.380;2022-08-05T02:41:49;7.05;;;4.18;;
24273;SDS011;12392;42.678;23.380;2022-08-05T02:44:16;5.13;;;4.63;;
24273;SDS011;12392;42.678;23.380;2022-08-05T02:46:43;6.50;;;3.80;;
24273;SDS011;12392;42.678;23.380;2022-08-05T02:49:10;4.47;;;4.07;;
24273;SDS011;12392;42.678;23.380;2022-08-05T02:51:38;4.47;;;4.05;;
24273;SDS011;12392;42.678;23.380;2022-08-05T02:54:04;5.65;;;4.53;;
24273;SDS011;12392;42.678;23.380;2022-08-05T02:56:31;15.88;;;4.10;;
24273;SDS011;12392;42.678;23.380;2022-08-05T02:58:58;4.45;;;3.75;;
24273;SDS011;12392;42.678;23.380;2022-08-05T03:01:25;5.28;;;4.22;;
24273;SDS011;12392;42.678;23.380;2022-08-05T03:03:58;6.15;;;4.38;;
24273;SDS011;12392;42.678;23.380;2022-08-05T03:06:26;7.20;;;5.05;;
24273;SDS011;12392;42.678;23.380;2022-08-05T03:08:52;7.80;;;4.85;;
24273;SDS011;12392;42.678;23.380;2022-08-05T03:11:22;7.20;;;5.70;;
24273;SDS011;12392;42.678;23.380;2022-08-05T03:13:50;8.20;;;6.50;;
24273;SDS011;12392;42.678;23.380;2022-08-05T03:16:16;11.50;;;7.15;;
24273;SDS011;12392;42.678;23.380;2022-08-05T03:18:42;15.63;;;6.72;;
24273;SDS011;12392;42.678;23.380;2022-08-05T03:21:08;7.80;;;6.50;;
24273;SDS011;12392;42.678;23.380;2022-08-05T03:23:35;14.23;;;6.80;;
24273;SDS011;12392;42.678;23.380;2022-08-05T03:26:02;10.95;;;6.97;;
24273;SDS011;12392;42.678;23.380;2022-08-05T03:28:28;12.40;;;7.18;;
24273;SDS011;12392;42.678;23.380;2022-08-05T03:30:55;11.57;;;6.70;;
24273;SDS011;12392;42.678;23.380;2022-08-05T03:33:21;15.60;;;7.45;;
24273;SDS011;12392;42.678;23.380;2022-08-05T03:35:47;12.98;;;7.45;;
24273;SDS011;12392;42.678;23.380;2022-08-05T03:38:14;13.48;;;7.57;;
24273;SDS011;12392;42.678;23.380;2022-08-05T03:40:41;18.20;;;7.65;;
24273;SDS011;12392;42.678;23.380;2022-08-05T03:43:07;13.93;;;8.00;;
24273;SDS011;12392;42.678;23.380;2022-08-05T03:45:33;12.95;;;8.02;;
24273;SDS011;12392;42.678;23.380;2022-08-05T03:47:58;11.45;;;7.47;;
24273;SDS011;12392;42.678;23.380;2022-08-05T03:50:30;11.40;;;7.40;;
24273;SDS011;12392;42.678;23.380;2022-08-05T03:53:14;10.48;;;6.93;;
24273;SDS011;12392;42.678;23.380;2022-08-05T03:55:56;13.52;;;7.50;;
24273;SDS011;12392;42.678;23.380;2022-08-05T03:58:36;10.50;;;7.30;;
24273;SDS011;12392;42.678;23.380;2022-08-05T04:01:03;11.65;;;7.50;;
24273;SDS011;12392;42.678;23.380;2022-08-05T04:03:31;16.17;;;8.70;;
24273;SDS011;12392;42.678;23.380;2022-08-05T04:06:00;23.77;;;10.88;;
24273;SDS011;12392;42.678;23.380;2022-08-05T04:08:25;16.00;;;11.02;;
24273;SDS011;12392;42.678;23.380;2022-08-05T04:10:51;21.98;;;11.55;;
24273;SDS011;12392;42.678;23.380;2022-08-05T04:13:17;21.90;;;11.45;;
24273;SDS011;12392;42.678;23.380;2022-08-05T04:15:45;20.40;;;10.60;;
24273;SDS011;12392;42.678;23.380;2022-08-05T04:18:11;13.10;;;9.70;;
24273;SDS011;12392;42.678;23.380;2022-08-05T04:20:37;17.33;;;8.68;;
24273;SDS011;12392;42.678;23.380;2022-08-05T04:23:03;15.93;;;8.48;;
24273;SDS011;12392;42.678;23.380;2022-08-05T04:25:29;13.80;;;8.07;;
24273;SDS011;12392;42.678;23.380;2022-08-05T04:27:54;18.00;;;7.15;;
24273;SDS011;12392;42.678;23.380;2022-08-05T04:30:21;13.10;;;6.72;;
24273;SDS011;12392;42.678;23.380;2022-08-05T04:32:46;8.93;;;5.97;;
24273;SDS011;12392;42.678;23.380;2022-08-05T04:35:12;12.93;;;6.63;;
24273;SDS011;12392;42.678;23.380;2022-08-05T04:37:38;11.55;;;6.40;;
24273;SDS011;12392;42.678;23.380;2022-08-05T04:40:03;8.50;;;6.40;;
24273;SDS011;12392;42.678;23.380;2022-08-05T04:42:30;11.27;;;6.93;;
24273;SDS011;12392;42.678;23.380;2022-08-05T04:44:55;14.68;;;7.30;;
24273;SDS011;12392;42.678;23.380;2022-08-05T04:47:21;14.35;;;6.80;;
24273;SDS011;12392;42.678;23.380;2022-08-05T04:49:47;12.77;;;6.90;;
24273;SDS011;12392;42.678;23.380;2022-08-05T04:52:13;12.60;;;6.20;;
24273;SDS011;12392;42.678;23.380;2022-08-05T04:54:39;10.40;;;6.38;;
24273;SDS011;12392;42.678;23.380;2022-08-05T04:57:04;9.63;;;7.13;;
24273;SDS011;12392;42.678;23.380;2022-08-05T04:59:30;7.40;;;6.43;;
24273;SDS011;12392;42.678;23.380;2022-08-05T05:01:56;10.02;;;6.45;;
24273;SDS011;12392;42.678;23.380;2022-08-05T05:04:22;13.30;;;7.57;;
24273;SDS011;12392;42.678;23.380;2022-08-05T05:06:48;14.30;;;8.90;;
24273;SDS011;12392;42.678;23.380;2022-08-05T05:09:14;14.60;;;11.50;;
24273;SDS011;12392;42.678;23.380;2022-08-05T05:11:39;14.93;;;10.95;;
24273;SDS011;12392;42.678;23.380;2022-08-05T05:14:05;25.58;;;15.82;;
24273;SDS011;12392;42.678;23.380;2022-08-05T05:16:31;21.15;;;13.35;;
24273;SDS011;12392;42.678;23.380;2022-08-05T05:18:57;20.55;;;12.55;;
24273;SDS011;12392;42.678;23.380;2022-08-05T05:21:22;17.42;;;11.45;;
24273;SDS011;12392;42.678;23.380;2022-08-05T05:23:49;15.82;;;10.55;;
24273;SDS011;12392;42.678;23.380;2022-08-05T05:26:15;16.05;;;9.88;;
24273;SDS011;12392;42.678;23.380;2022-08-05T05:28:40;11.05;;;8.27;;
24273;SDS011;12392;42.678;23.380;2022-08-05T05:31:06;15.27;;;8.43;;
24273;SDS011;12392;42.678;23.380;2022-08-05T05:33:32;13.90;;;8.25;;
24273;SDS011;12392;42.678;23.380;2022-08-05T05:35:57;10.25;;;7.63;;
24273;SDS011;12392;42.678;23.380;2022-08-05T05:38:23;10.10;;;7.35;;
24273;SDS011;12392;42.678;23.380;2022-08-05T05:40:49;11.73;;;7.55;;
24273;SDS011;12392;42.678;23.380;2022-08-05T05:43:14;8.77;;;7.82;;
24273;SDS011;12392;42.678;23.380;2022-08-05T05:45:40;10.80;;;8.00;;
24273;SDS011;12392;42.678;23.380;2022-08-05T05:48:06;8.85;;;7.40;;
24273;SDS011;12392;42.678;23.380;2022-08-05T05:50:32;17.23;;;7.25;;
24273;SDS011;12392;42.678;23.380;2022-08-05T05:52:58;14.05;;;6.63;;
24273;SDS011;12392;42.678;23.380;2022-08-05T05:55:24;13.85;;;7.10;;
24273;SDS011;12392;42.678;23.380;2022-08-05T05:57:49;8.93;;;6.50;;
24273;SDS011;12392;42.678;23.380;2022-08-05T06:00:17;8.20;;;6.22;;
24273;SDS011;12392;42.678;23.380;2022-08-05T06:02:44;11.38;;;6.40;;
24273;SDS011;12392;42.678;23.380;2022-08-05T06:05:12;13.00;;;6.18;;
24273;SDS011;12392;42.678;23.380;2022-08-05T06:07:38;13.73;;;6.22;;
24273;SDS011;12392;42.678;23.380;2022-08-05T06:10:05;13.45;;;6.93;;
24273;SDS011;12392;42.678;23.380;2022-08-05T06:12:32;8.82;;;5.97;;
24273;SDS011;12392;42.678;23.380;2022-08-05T06:15:04;8.40;;;6.72;;
24273;SDS011;12392;42.678;23.380;2022-08-05T06:17:30;14.55;;;7.15;;
24273;SDS011;12392;42.678;23.380;2022-08-05T06:19:56;15.02;;;6.78;;
24273;SDS011;12392;42.678;23.380;2022-08-05T06:22:24;13.88;;;7.13;;
24273;SDS011;12392;42.678;23.380;2022-08-05T06:24:53;12.52;;;6.88;;
24273;SDS011;12392;42.678;23.380;2022-08-05T06:27:19;16.00;;;7.05;;
24273;SDS011;12392;42.678;23.380;2022-08-05T06:29:45;15.70;;;7.20;;
24273;SDS011;12392;42.678;23.380;2022-08-05T06:32:11;13.68;;;6.47;;
24273;SDS011;12392;42.678;23.380;2022-08-05T06:34:37;12.77;;;7.13;;
24273;SDS011;12392;42.678;23.380;2022-08-05T06:37:02;15.13;;;7.03;;
24273;SDS011;12392;42.678;23.380;2022-08-05T06:39:28;11.68;;;6.30;;
24273;SDS011;12392;42.678;23.380;2022-08-05T06:41:55;13.00;;;6.53;;
24273;SDS011;12392;42.678;23.380;2022-08-05T06:44:21;16.23;;;6.82;;
24273;SDS011;12392;42.678;23.380;2022-08-05T06:46:47;16.98;;;7.50;;
24273;SDS011;12392;42.678;23.380;2022-08-05T06:49:13;16.40;;;7.68;;
24273;SDS011;12392;42.678;23.380;2022-08-05T06:51:38;10.15;;;6.93;;
24273;SDS011;12392;42.678;23.380;2022-08-05T06:54:04;14.13;;;6.82;;
24273;SDS011;12392;42.678;23.380;2022-08-05T06:56:30;12.15;;;6.88;;
24273;SDS011;12392;42.678;23.380;2022-08-05T06:58:57;13.02;;;6.88;;
24273;SDS011;12392;42.678;23.380;2022-08-05T07:01:22;17.05;;;6.78;;
24273;SDS011;12392;42.678;23.380;2022-08-05T07:03:48;14.88;;;7.15;;
24273;SDS011;12392;42.678;23.380;2022-08-05T07:06:14;12.38;;;6.32;;
24273;SDS011;12392;42.678;23.380;2022-08-05T07:08:40;13.20;;;6.75;;
24273;SDS011;12392;42.678;23.380;2022-08-05T07:11:07;19.85;;;7.40;;
24273;SDS011;12392;42.678;23.380;2022-08-05T07:13:33;13.23;;;6.68;;
24273;SDS011;12392;42.678;23.380;2022-08-05T07:16:17;11.40;;;6.38;;
24273;SDS011;12392;42.678;23.380;2022-08-05T07:19:02;16.60;;;6.38;;
24273;SDS011;12392;42.678;23.380;2022-08-05T07:21:28;11.77;;;5.53;;
24273;SDS011;12392;42.678;23.380;2022-08-05T07:23:54;15.68;;;5.90;;
24273;SDS011;12392;42.678;23.380;2022-08-05T07:26:20;12.77;;;6.10;;
24273;SDS011;12392;42.678;23.380;2022-08-05T07:28:46;14.60;;;6.35;;
24273;SDS011;12392;42.678;23.380;2022-08-05T07:31:12;12.55;;;5.95;;
24273;SDS011;12392;42.678;23.380;2022-08-05T07:33:38;13.48;;;5.32;;
24273;SDS011;12392;42.678;23.380;2022-08-05T07:36:04;17.17;;;6.90;;
24273;SDS011;12392;42.678;23.380;2022-08-05T07:38:30;14.23;;;5.97;;
24273;SDS011;12392;42.678;23.380;2022-08-05T07:40:56;12.27;;;5.40;;
24273;SDS011;12392;42.678;23.380;2022-08-05T07:43:22;10.38;;;6.07;;
24273;SDS011;12392;42.678;23.380;2022-08-05T07:45:47;14.50;;;5.65;;
24273;SDS011;12392;42.678;23.380;2022-08-05T07:48:13;13.40;;;5.20;;
24273;SDS011;12392;42.678;23.380;2022-08-05T07:50:39;9.70;;;4.90;;
24273;SDS011;12392;42.678;23.380;2022-08-05T07:53:04;8.43;;;5.00;;
24273;SDS011;12392;42.678;23.380;2022-08-05T07:55:30;9.40;;;5.07;;
24273;SDS011;12392;42.678;23.380;2022-08-05T07:57:56;5.72;;;4.70;;
24273;SDS011;12392;42.678;23.380;2022-08-05T08:00:22;10.95;;;4.38;;
24273;SDS011;12392;42.678;23.380;2022-08-05T08:02:49;8.73;;;4.75;;
24273;SDS011;12392;42.678;23.380;2022-08-05T08:05:15;8.32;;;4.40;;
24273;SDS011;12392;42.678;23.380;2022-08-05T08:07:41;12.73;;;4.53;;
24273;SDS011;12392;42.678;23.380;2022-08-05T08:10:06;11.73;;;4.57;;
24273;SDS011;12392;42.678;23.380;2022-08-05T08:12:32;13.23;;;4.95;;
24273;SDS011;12392;42.678;23.380;2022-08-05T08:14:58;10.18;;;4.55;;
24273;SDS011;12392;42.678;23.380;2022-08-05T08:17:24;5.82;;;4.40;;
24273;SDS011;12392;42.678;23.380;2022-08-05T08:19:50;6.95;;;4.60;;
24273;SDS011;12392;42.678;23.380;2022-08-05T08:22:15;8.35;;;4.25;;
24273;SDS011;12392;42.678;23.380;2022-08-05T08:24:41;13.07;;;4.80;;
24273;SDS011;12392;42.678;23.380;2022-08-05T08:27:07;7.38;;;4.35;;
24273;SDS011;12392;42.678;23.380;2022-08-05T08:29:32;8.32;;;4.78;;
24273;SDS011;12392;42.678;23.380;2022-08-05T08:31:58;9.00;;;4.32;;
24273;SDS011;12392;42.678;23.380;2022-08-05T08:34:25;10.30;;;4.63;;
24273;SDS011;12392;42.678;23.380;2022-08-05T08:36:51;8.10;;;4.15;;
24273;SDS011;12392;42.678;23.380;2022-08-05T08:39:17;11.15;;;4.70;;
24273;SDS011;12392;42.678;23.380;2022-08-05T08:41:44;11.55;;;4.55;;
24273;SDS011;12392;42.678;23.380;2022-08-05T08:44:13;7.30;;;4.30;;
24273;SDS011;12392;42.678;23.380;2022-08-05T08:46:40;8.15;;;4.47;;
24273;SDS011;12392;42.678;23.380;2022-08-05T08:49:06;7.72;;;4.70;;
24273;SDS011;12392;42.678;23.380;2022-08-05T08:51:32;8.52;;;4.32;;
24273;SDS011;12392;42.678;23.380;2022-08-05T08:53:59;6.68;;;4.05;;
24273;SDS011;12392;42.678;23.380;2022-08-05T08:56:25;6.03;;;3.80;;
24273;SDS011;12392;42.678;23.380;2022-08-05T08:58:51;3.97;;;3.45;;
24273;SDS011;12392;42.678;23.380;2022-08-05T09:01:18;7.75;;;3.45;;
24273;SDS011;12392;42.678;23.380;2022-08-05T09:03:45;5.38;;;3.35;;
24273;SDS011;12392;42.678;23.380;2022-08-05T09:06:12;3.80;;;2.83;;
24273;SDS011;12392;42.678;23.380;2022-08-05T09:12:00;4.57;;;3.15;;
24273;SDS011;12392;42.678;23.380;2022-08-05T09:14:27;11.30;;;3.83;;
24273;SDS011;12392;42.678;23.380;2022-08-05T09:16:53;5.78;;;3.15;;
24273;SDS011;12392;42.678;23.380;2022-08-05T09:19:19;4.65;;;2.80;;
24273;SDS011;12392;42.678;23.380;2022-08-05T09:21:46;6.05;;;3.20;;
24273;SDS011;12392;42.678;23.380;2022-08-05T09:24:11;5.57;;;3.42;;
24273;SDS011;12392;42.678;23.380;2022-08-05T09:26:37;8.05;;;2.47;;
24273;SDS011;12392;42.678;23.380;2022-08-05T09:29:04;6.05;;;2.53;;
24273;SDS011;12392;42.678;23.380;2022-08-05T09:31:31;6.22;;;2.67;;
24273;SDS011;12392;42.678;23.380;2022-08-05T09:34:02;8.38;;;3.05;;
24273;SDS011;12392;42.678;23.380;2022-08-05T09:36:39;9.38;;;3.00;;
24273;SDS011;12392;42.678;23.380;2022-08-05T09:39:17;5.57;;;3.08;;
24273;SDS011;12392;42.678;23.380;2022-08-05T09:42:02;6.18;;;3.10;;
24273;SDS011;12392;42.678;23.380;2022-08-05T09:44:35;4.78;;;3.00;;
24273;SDS011;12392;42.678;23.380;2022-08-05T09:47:13;5.90;;;3.00;;
24273;SDS011;12392;42.678;23.380;2022-08-05T09:49:44;7.43;;;2.90;;
24273;SDS011;12392;42.678;23.380;2022-08-05T09:52:31;6.55;;;2.63;;
24273;SDS011;12392;42.678;23.380;2022-08-05T09:55:02;3.35;;;2.80;;
24273;SDS011;12392;42.678;23.380;2022-08-05T10:02:42;4.20;;;3.10;;
24273;SDS011;12392;42.678;23.380;2022-08-05T10:05:13;3.83;;;2.90;;
24273;SDS011;12392;42.678;23.380;2022-08-05T10:08:00;5.05;;;2.90;;
24273;SDS011;12392;42.678;23.380;2022-08-05T10:12:58;5.95;;;3.63;;
24273;SDS011;12392;42.678;23.380;2022-08-05T10:15:27;5.60;;;3.30;;
24273;SDS011;12392;42.678;23.380;2022-08-05T10:18:10;9.80;;;4.30;;
24273;SDS011;12392;42.678;23.380;2022-08-05T10:20:47;3.67;;;2.75;;
24273;SDS011;12392;42.678;23.380;2022-08-05T10:23:24;3.53;;;3.03;;
24273;SDS011;12392;42.678;23.380;2022-08-05T10:25:50;5.93;;;3.97;;
24273;SDS011;12392;42.678;23.380;2022-08-05T10:28:16;4.20;;;3.28;;
24273;SDS011;12392;42.678;23.380;2022-08-05T10:30:42;8.40;;;3.22;;
24273;SDS011;12392;42.678;23.380;2022-08-05T10:33:08;12.10;;;3.13;;
24273;SDS011;12392;42.678;23.380;2022-08-05T10:35:34;4.85;;;3.40;;
24273;SDS011;12392;42.678;23.380;2022-08-05T10:38:01;3.90;;;2.88;;
24273;SDS011;12392;42.678;23.380;2022-08-05T10:46:00;3.72;;;3.20;;
24273;SDS011;12392;42.678;23.380;2022-08-05T10:48:30;7.57;;;3.70;;
24273;SDS011;12392;42.678;23.380;2022-08-05T10:50:57;4.70;;;3.03;;
24273;SDS011;12392;42.678;23.380;2022-08-05T10:53:36;4.72;;;2.95;;
24273;SDS011;12392;42.678;23.380;2022-08-05T10:56:06;3.30;;;3.00;;
24273;SDS011;12392;42.678;23.380;2022-08-05T10:58:34;6.00;;;3.03;;
24273;SDS011;12392;42.678;23.380;2022-08-05T11:01:03;5.35;;;3.10;;
24273;SDS011;12392;42.678;23.380;2022-08-05T11:03:30;4.53;;;3.63;;
24273;SDS011;12392;42.678;23.380;2022-08-05T11:06:03;4.30;;;3.45;;
24273;SDS011;12392;42.678;23.380;2022-08-05T11:08:36;5.32;;;3.05;;
24273;SDS011;12392;42.678;23.380;2022-08-05T11:11:35;3.95;;;3.10;;
24273;SDS011;12392;42.678;23.380;2022-08-05T11:13:58;3.88;;;3.47;;
24273;SDS011;12392;42.678;23.380;2022-08-05T11:16:24;7.90;;;3.17;;
24273;SDS011;12392;42.678;23.380;2022-08-05T11:21:54;3.95;;;3.05;;
24273;SDS011;12392;42.678;23.380;2022-08-05T11:24:20;3.45;;;2.85;;
24273;SDS011;12392;42.678;23.380;2022-08-05T11:26:48;6.32;;;3.45;;
24273;SDS011;12392;42.678;23.380;2022-08-05T11:29:37;7.03;;;3.47;;
24273;SDS011;12392;42.678;23.380;2022-08-05T11:32:23;9.90;;;3.40;;
24273;SDS011;12392;42.678;23.380;2022-08-05T11:34:51;5.10;;;3.53;;
24273;SDS011;12392;42.678;23.380;2022-08-05T11:40:06;3.97;;;3.20;;
24273;SDS011;12392;42.678;23.380;2022-08-05T11:42:32;4.38;;;3.33;;
24273;SDS011;12392;42.678;23.380;2022-08-05T11:45:02;4.13;;;3.15;;
24273;SDS011;12392;42.678;23.380;2022-08-05T11:47:30;5.00;;;3.53;;
24273;SDS011;12392;42.678;23.380;2022-08-05T11:49:57;5.60;;;3.13;;
24273;SDS011;12392;42.678;23.380;2022-08-05T11:52:25;4.57;;;3.05;;
24273;SDS011;12392;42.678;23.380;2022-08-05T11:54:51;7.13;;;3.40;;
24273;SDS011;12392;42.678;23.380;2022-08-05T11:57:18;4.13;;;3.35;;
24273;SDS011;12392;42.678;23.380;2022-08-05T11:59:44;5.07;;;3.35;;
24273;SDS011;12392;42.678;23.380;2022-08-05T12:02:10;4.28;;;3.90;;
24273;SDS011;12392;42.678;23.380;2022-08-05T12:04:45;4.80;;;4.28;;
24273;SDS011;12392;42.678;23.380;2022-08-05T12:07:13;9.77;;;5.50;;
24273;SDS011;12392;42.678;23.380;2022-08-05T12:09:41;5.05;;;3.70;;
24273;SDS011;12392;42.678;23.380;2022-08-05T12:12:21;6.32;;;4.38;;
24273;SDS011;12392;42.678;23.380;2022-08-05T12:14:53;4.60;;;4.22;;
24273;SDS011;12392;42.678;23.380;2022-08-05T12:17:19;3.92;;;3.53;;
24273;SDS011;12392;42.678;23.380;2022-08-05T12:19:46;6.88;;;3.42;;
24273;SDS011;12392;42.678;23.380;2022-08-05T12:22:14;6.68;;;3.70;;
24273;SDS011;12392;42.678;23.380;2022-08-05T12:24:41;5.53;;;3.53;;
24273;SDS011;12392;42.678;23.380;2022-08-05T12:27:09;6.97;;;3.33;;
24273;SDS011;12392;42.678;23.380;2022-08-05T12:29:35;8.07;;;4.13;;
24273;SDS011;12392;42.678;23.380;2022-08-05T12:32:01;4.53;;;3.22;;
24273;SDS011;12392;42.678;23.380;2022-08-05T12:34:31;7.50;;;3.67;;
24273;SDS011;12392;42.678;23.380;2022-08-05T12:36:58;9.38;;;3.90;;
24273;SDS011;12392;42.678;23.380;2022-08-05T12:39:25;8.23;;;3.80;;
24273;SDS011;12392;42.678;23.380;2022-08-05T12:41:56;5.10;;;3.50;;
24273;SDS011;12392;42.678;23.380;2022-08-05T12:44:22;6.43;;;3.72;;
24273;SDS011;12392;42.678;23.380;2022-08-05T12:46:52;6.32;;;3.47;;
24273;SDS011;12392;42.678;23.380;2022-08-05T12:49:19;3.92;;;3.63;;
24273;SDS011;12392;42.678;23.380;2022-08-05T12:51:55;6.13;;;3.20;;
24273;SDS011;12392;42.678;23.380;2022-08-05T12:54:27;6.65;;;3.30;;
24273;SDS011;12392;42.678;23.380;2022-08-05T12:59:28;4.22;;;3.25;;
24273;SDS011;12392;42.678;23.380;2022-08-05T13:01:59;5.72;;;3.03;;
24273;SDS011;12392;42.678;23.380;2022-08-05T13:04:25;7.30;;;3.10;;
24273;SDS011;12392;42.678;23.380;2022-08-05T13:07:03;7.40;;;3.95;;
24273;SDS011;12392;42.678;23.380;2022-08-05T13:09:37;3.95;;;3.53;;
24273;SDS011;12392;42.678;23.380;2022-08-05T13:12:05;8.60;;;3.53;;
24273;SDS011;12392;42.678;23.380;2022-08-05T13:14:39;4.03;;;3.25;;
24273;SDS011;12392;42.678;23.380;2022-08-05T13:17:07;5.13;;;3.45;;
24273;SDS011;12392;42.678;23.380;2022-08-05T13:19:39;5.70;;;3.10;;
24273;SDS011;12392;42.678;23.380;2022-08-05T13:22:05;9.95;;;3.45;;
24273;SDS011;12392;42.678;23.380;2022-08-05T13:24:31;4.07;;;3.20;;
24273;SDS011;12392;42.678;23.380;2022-08-05T13:26:56;6.30;;;3.10;;
24273;SDS011;12392;42.678;23.380;2022-08-05T13:29:22;3.85;;;3.45;;
24273;SDS011;12392;42.678;23.380;2022-08-05T13:31:48;3.10;;;2.80;;
24273;SDS011;12392;42.678;23.380;2022-08-05T13:34:14;4.15;;;3.20;;
24273;SDS011;12392;42.678;23.380;2022-08-05T13:36:40;3.47;;;3.13;;
24273;SDS011;12392;42.678;23.380;2022-08-05T13:39:07;3.25;;;2.88;;
24273;SDS011;12392;42.678;23.380;2022-08-05T13:41:34;6.85;;;3.20;;
24273;SDS011;12392;42.678;23.380;2022-08-05T13:44:00;3.60;;;3.30;;
24273;SDS011;12392;42.678;23.380;2022-08-05T13:46:27;5.88;;;3.10;;
24273;SDS011;12392;42.678;23.380;2022-08-05T13:48:53;5.80;;;3.03;;
24273;SDS011;12392;42.678;23.380;2022-08-05T13:51:25;5.15;;;2.92;;
24273;SDS011;12392;42.678;23.380;2022-08-05T13:53:53;2.92;;;2.70;;
24273;SDS011;12392;42.678;23.380;2022-08-05T13:56:18;3.42;;;2.80;;
24273;SDS011;12392;42.678;23.380;2022-08-05T13:58:44;3.00;;;2.70;;
24273;SDS011;12392;42.678;23.380;2022-08-05T14:01:10;3.08;;;2.70;;
24273;SDS011;12392;42.678;23.380;2022-08-05T14:03:36;4.93;;;3.00;;
24273;SDS011;12392;42.678;23.380;2022-08-05T14:06:01;5.05;;;2.80;;
24273;SDS011;12392;42.678;23.380;2022-08-05T14:08:27;3.38;;;3.08;;
24273;SDS011;12392;42.678;23.380;2022-08-05T14:10:53;3.58;;;2.75;;
24273;SDS011;12392;42.678;23.380;2022-08-05T14:13:19;3.92;;;2.92;;
24273;SDS011;12392;42.678;23.380;2022-08-05T14:15:44;6.60;;;2.75;;
24273;SDS011;12392;42.678;23.380;2022-08-05T14:18:10;3.25;;;3.00;;
24273;SDS011;12392;42.678;23.380;2022-08-05T14:20:36;2.85;;;2.60;;
24273;SDS011;12392;42.678;23.380;2022-08-05T14:23:02;4.25;;;2.72;;
24273;SDS011;12392;42.678;23.380;2022-08-05T14:25:28;4.18;;;2.78;;
24273;SDS011;12392;42.678;23.380;2022-08-05T14:27:54;3.53;;;2.83;;
24273;SDS011;12392;42.678;23.380;2022-08-05T14:30:20;3.92;;;3.22;;
24273;SDS011;12392;42.678;23.380;2022-08-05T14:32:46;4.72;;;2.90;;
24273;SDS011;12392;42.678;23.380;2022-08-05T14:35:11;3.25;;;2.95;;
24273;SDS011;12392;42.678;23.380;2022-08-05T14:37:37;5.03;;;2.67;;
24273;SDS011;12392;42.678;23.380;2022-08-05T14:40:03;3.95;;;3.10;;
24273;SDS011;12392;42.678;23.380;2022-08-05T14:42:29;3.03;;;2.83;;
24273;SDS011;12392;42.678;23.380;2022-08-05T14:44:55;3.60;;;2.80;;
24273;SDS011;12392;42.678;23.380;2022-08-05T14:47:21;3.22;;;2.70;;
24273;SDS011;12392;42.678;23.380;2022-08-05T14:49:47;2.72;;;2.50;;
24273;SDS011;12392;42.678;23.380;2022-08-05T14:52:13;3.97;;;2.55;;
24273;SDS011;12392;42.678;23.380;2022-08-05T14:54:38;2.63;;;2.42;;
24273;SDS011;12392;42.678;23.380;2022-08-05T14:57:04;4.57;;;3.10;;
24273;SDS011;12392;42.678;23.380;2022-08-05T14:59:30;5.05;;;2.50;;
24273;SDS011;12392;42.678;23.380;2022-08-05T15:01:56;3.42;;;2.63;;
24273;SDS011;12392;42.678;23.380;2022-08-05T15:04:22;2.53;;;2.33;;
24273;SDS011;12392;42.678;23.380;2022-08-05T15:06:50;4.90;;;2.80;;